Terminal Aerodrome Forecast
Issued by NWS

Home | Current Version | Previous Version | Text Only | Print | Product List | Glossary On
Versions: 1 2 3 4 5 6 7 8 9 10 11 12 13 14 15 16 17
000
FTUS43 KIND 210520
TAFBMG
TAF
KBMG 210520Z 2106/2206 20006KT 5SM -DZ BR VCSH OVC015 WS020/22040KT
     FM211400 18006KT 1SM -DZ BR VCSH OVC003 WS020/23035KT
     FM211800 19007KT 3SM -DZ BR VCSH OVC003
     FM220000 18007KT P6SM OVC003
     FM220500 17007KT P6SM OVC020
      AMD LTD TO CLD VIS AND WIND TIL 211400=

USA.gov is the U.S. government's official web portal to all federal, state and local government web resources and services.